sensor_id;sensor_type;location;lat;lon;timestamp;P1;durP1;ratioP1;P2;durP2;ratioP2
12986;SDS011;58897;51.960;5.582;2023-04-25T00:01:54;6.60;;;2.60;;
12986;SDS011;58897;51.960;5.582;2023-04-25T00:04:20;4.50;;;2.47;;
12986;SDS011;58897;51.960;5.582;2023-04-25T00:06:48;7.00;;;2.43;;
12986;SDS011;58897;51.960;5.582;2023-04-25T00:09:14;5.70;;;2.43;;
12986;SDS011;58897;51.960;5.582;2023-04-25T00:11:41;6.93;;;2.37;;
12986;SDS011;58897;51.960;5.582;2023-04-25T00:14:07;8.77;;;2.33;;
12986;SDS011;58897;51.960;5.582;2023-04-25T00:16:34;7.13;;;2.80;;
12986;SDS011;58897;51.960;5.582;2023-04-25T00:19:01;5.63;;;2.60;;
12986;SDS011;58897;51.960;5.582;2023-04-25T00:21:29;7.87;;;2.90;;
12986;SDS011;58897;51.960;5.582;2023-04-25T00:23:57;7.13;;;2.90;;
12986;SDS011;58897;51.960;5.582;2023-04-25T00:26:24;12.57;;;2.83;;
12986;SDS011;58897;51.960;5.582;2023-04-25T00:28:51;7.67;;;3.23;;
12986;SDS011;58897;51.960;5.582;2023-04-25T00:31:17;6.40;;;2.23;;
12986;SDS011;58897;51.960;5.582;2023-04-25T00:33:44;8.77;;;2.77;;
12986;SDS011;58897;51.960;5.582;2023-04-25T00:36:10;6.83;;;2.77;;
12986;SDS011;58897;51.960;5.582;2023-04-25T00:38:37;5.50;;;2.87;;
12986;SDS011;58897;51.960;5.582;2023-04-25T00:41:05;9.67;;;2.97;;
12986;SDS011;58897;51.960;5.582;2023-04-25T00:43:32;11.27;;;2.97;;
12986;SDS011;58897;51.960;5.582;2023-04-25T00:46:00;9.23;;;3.10;;
12986;SDS011;58897;51.960;5.582;2023-04-25T00:48:27;9.57;;;3.00;;
12986;SDS011;58897;51.960;5.582;2023-04-25T00:50:54;9.10;;;3.17;;
12986;SDS011;58897;51.960;5.582;2023-04-25T00:53:23;9.23;;;3.27;;
12986;SDS011;58897;51.960;5.582;2023-04-25T00:55:51;7.60;;;3.10;;
12986;SDS011;58897;51.960;5.582;2023-04-25T00:58:19;7.53;;;2.47;;
12986;SDS011;58897;51.960;5.582;2023-04-25T01:00:47;9.70;;;3.10;;
12986;SDS011;58897;51.960;5.582;2023-04-25T01:03:15;10.27;;;3.27;;
12986;SDS011;58897;51.960;5.582;2023-04-25T01:05:43;6.67;;;3.10;;
12986;SDS011;58897;51.960;5.582;2023-04-25T01:08:10;10.13;;;2.83;;
12986;SDS011;58897;51.960;5.582;2023-04-25T01:10:36;6.53;;;2.67;;
12986;SDS011;58897;51.960;5.582;2023-04-25T01:13:03;11.77;;;2.97;;
12986;SDS011;58897;51.960;5.582;2023-04-25T01:15:29;9.47;;;2.80;;
12986;SDS011;58897;51.960;5.582;2023-04-25T01:17:56;10.10;;;3.90;;
12986;SDS011;58897;51.960;5.582;2023-04-25T01:20:24;5.73;;;3.67;;
12986;SDS011;58897;51.960;5.582;2023-04-25T01:22:51;8.40;;;3.50;;
12986;SDS011;58897;51.960;5.582;2023-04-25T01:25:18;9.43;;;4.00;;
12986;SDS011;58897;51.960;5.582;2023-04-25T01:27:45;12.27;;;2.77;;
12986;SDS011;58897;51.960;5.582;2023-04-25T01:30:13;6.63;;;2.70;;
12986;SDS011;58897;51.960;5.582;2023-04-25T01:32:40;10.67;;;3.20;;
12986;SDS011;58897;51.960;5.582;2023-04-25T01:35:09;8.20;;;3.33;;
12986;SDS011;58897;51.960;5.582;2023-04-25T01:37:40;12.67;;;3.93;;
12986;SDS011;58897;51.960;5.582;2023-04-25T01:40:09;8.37;;;2.90;;
12986;SDS011;58897;51.960;5.582;2023-04-25T01:42:38;8.87;;;3.10;;
12986;SDS011;58897;51.960;5.582;2023-04-25T01:45:07;11.03;;;3.07;;
12986;SDS011;58897;51.960;5.582;2023-04-25T01:47:35;9.43;;;2.87;;
12986;SDS011;58897;51.960;5.582;2023-04-25T01:50:04;5.73;;;2.67;;
12986;SDS011;58897;51.960;5.582;2023-04-25T01:52:32;6.63;;;2.67;;
12986;SDS011;58897;51.960;5.582;2023-04-25T01:55:02;7.10;;;2.93;;
12986;SDS011;58897;51.960;5.582;2023-04-25T01:57:28;8.20;;;2.67;;
12986;SDS011;58897;51.960;5.582;2023-04-25T01:59:57;7.27;;;2.83;;
12986;SDS011;58897;51.960;5.582;2023-04-25T02:02:25;7.37;;;2.33;;
12986;SDS011;58897;51.960;5.582;2023-04-25T02:04:52;8.57;;;2.47;;
12986;SDS011;58897;51.960;5.582;2023-04-25T02:07:20;6.00;;;2.20;;
12986;SDS011;58897;51.960;5.582;2023-04-25T02:09:46;7.50;;;2.60;;
12986;SDS011;58897;51.960;5.582;2023-04-25T02:12:13;12.23;;;2.80;;
12986;SDS011;58897;51.960;5.582;2023-04-25T02:14:39;9.47;;;2.87;;
12986;SDS011;58897;51.960;5.582;2023-04-25T02:17:06;7.30;;;2.37;;
12986;SDS011;58897;51.960;5.582;2023-04-25T02:19:33;7.30;;;2.57;;
12986;SDS011;58897;51.960;5.582;2023-04-25T02:21:59;7.57;;;2.90;;
12986;SDS011;58897;51.960;5.582;2023-04-25T02:24:26;7.33;;;2.90;;
12986;SDS011;58897;51.960;5.582;2023-04-25T02:26:54;8.37;;;3.00;;
12986;SDS011;58897;51.960;5.582;2023-04-25T02:29:22;8.57;;;2.60;;
12986;SDS011;58897;51.960;5.582;2023-04-25T02:31:49;4.93;;;2.67;;
12986;SDS011;58897;51.960;5.582;2023-04-25T02:34:16;8.23;;;3.93;;
12986;SDS011;58897;51.960;5.582;2023-04-25T02:36:42;9.47;;;2.63;;
12986;SDS011;58897;51.960;5.582;2023-04-25T02:39:09;8.10;;;3.10;;
12986;SDS011;58897;51.960;5.582;2023-04-25T02:41:36;4.97;;;2.70;;
12986;SDS011;58897;51.960;5.582;2023-04-25T02:44:03;9.57;;;4.30;;
12986;SDS011;58897;51.960;5.582;2023-04-25T02:46:29;8.87;;;2.90;;
12986;SDS011;58897;51.960;5.582;2023-04-25T02:49:05;11.80;;;3.53;;
12986;SDS011;58897;51.960;5.582;2023-04-25T02:51:32;6.23;;;2.93;;
12986;SDS011;58897;51.960;5.582;2023-04-25T02:53:58;8.63;;;3.60;;
12986;SDS011;58897;51.960;5.582;2023-04-25T02:56:25;8.17;;;2.90;;
12986;SDS011;58897;51.960;5.582;2023-04-25T02:58:52;6.20;;;3.10;;
12986;SDS011;58897;51.960;5.582;2023-04-25T03:01:19;9.53;;;2.93;;
12986;SDS011;58897;51.960;5.582;2023-04-25T03:03:46;6.13;;;2.97;;
12986;SDS011;58897;51.960;5.582;2023-04-25T03:06:13;7.50;;;3.07;;
12986;SDS011;58897;51.960;5.582;2023-04-25T03:08:40;6.13;;;3.27;;
12986;SDS011;58897;51.960;5.582;2023-04-25T03:11:07;6.40;;;3.40;;
12986;SDS011;58897;51.960;5.582;2023-04-25T03:13:34;4.27;;;2.57;;
12986;SDS011;58897;51.960;5.582;2023-04-25T03:16:00;8.27;;;3.53;;
12986;SDS011;58897;51.960;5.582;2023-04-25T03:18:27;12.17;;;3.90;;
12986;SDS011;58897;51.960;5.582;2023-04-25T03:20:54;9.10;;;3.90;;
12986;SDS011;58897;51.960;5.582;2023-04-25T03:23:20;10.07;;;4.07;;
12986;SDS011;58897;51.960;5.582;2023-04-25T03:25:47;7.03;;;3.80;;
12986;SDS011;58897;51.960;5.582;2023-04-25T03:28:14;8.70;;;3.70;;
12986;SDS011;58897;51.960;5.582;2023-04-25T03:30:40;7.97;;;3.50;;
12986;SDS011;58897;51.960;5.582;2023-04-25T03:33:07;14.17;;;4.40;;
12986;SDS011;58897;51.960;5.582;2023-04-25T03:35:33;9.70;;;4.20;;
12986;SDS011;58897;51.960;5.582;2023-04-25T03:38:00;11.53;;;4.07;;
12986;SDS011;58897;51.960;5.582;2023-04-25T03:40:26;6.30;;;3.27;;
12986;SDS011;58897;51.960;5.582;2023-04-25T03:42:53;8.13;;;3.50;;
12986;SDS011;58897;51.960;5.582;2023-04-25T03:45:19;10.30;;;3.93;;
12986;SDS011;58897;51.960;5.582;2023-04-25T03:47:46;9.83;;;3.60;;
12986;SDS011;58897;51.960;5.582;2023-04-25T03:50:12;6.33;;;3.63;;
12986;SDS011;58897;51.960;5.582;2023-04-25T03:52:39;6.60;;;2.83;;
12986;SDS011;58897;51.960;5.582;2023-04-25T03:55:05;8.60;;;4.07;;
12986;SDS011;58897;51.960;5.582;2023-04-25T03:57:32;6.13;;;3.43;;
12986;SDS011;58897;51.960;5.582;2023-04-25T03:59:59;13.13;;;4.27;;
12986;SDS011;58897;51.960;5.582;2023-04-25T04:02:25;9.00;;;3.13;;
12986;SDS011;58897;51.960;5.582;2023-04-25T04:04:52;7.67;;;3.77;;
12986;SDS011;58897;51.960;5.582;2023-04-25T04:07:19;8.73;;;3.37;;
12986;SDS011;58897;51.960;5.582;2023-04-25T04:09:46;11.00;;;3.93;;
12986;SDS011;58897;51.960;5.582;2023-04-25T04:12:12;9.17;;;4.23;;
12986;SDS011;58897;51.960;5.582;2023-04-25T04:14:39;7.23;;;3.23;;
12986;SDS011;58897;51.960;5.582;2023-04-25T04:17:06;10.00;;;4.37;;
12986;SDS011;58897;51.960;5.582;2023-04-25T04:19:33;6.40;;;4.13;;
12986;SDS011;58897;51.960;5.582;2023-04-25T04:21:59;10.03;;;4.10;;
12986;SDS011;58897;51.960;5.582;2023-04-25T04:24:26;9.33;;;3.73;;
12986;SDS011;58897;51.960;5.582;2023-04-25T04:26:52;7.73;;;3.10;;
12986;SDS011;58897;51.960;5.582;2023-04-25T04:29:19;11.03;;;3.50;;
12986;SDS011;58897;51.960;5.582;2023-04-25T04:31:48;9.87;;;3.70;;
12986;SDS011;58897;51.960;5.582;2023-04-25T04:34:18;7.73;;;4.50;;
12986;SDS011;58897;51.960;5.582;2023-04-25T04:36:45;9.57;;;3.50;;
12986;SDS011;58897;51.960;5.582;2023-04-25T04:39:12;12.30;;;3.53;;
12986;SDS011;58897;51.960;5.582;2023-04-25T04:41:39;9.43;;;3.43;;
12986;SDS011;58897;51.960;5.582;2023-04-25T04:44:06;11.03;;;3.47;;
12986;SDS011;58897;51.960;5.582;2023-04-25T04:46:35;8.77;;;3.40;;
12986;SDS011;58897;51.960;5.582;2023-04-25T04:49:07;8.73;;;3.63;;
12986;SDS011;58897;51.960;5.582;2023-04-25T04:51:37;5.37;;;2.90;;
12986;SDS011;58897;51.960;5.582;2023-04-25T04:54:04;8.90;;;3.00;;
12986;SDS011;58897;51.960;5.582;2023-04-25T04:56:30;7.40;;;3.30;;
12986;SDS011;58897;51.960;5.582;2023-04-25T04:58:57;6.07;;;2.80;;
12986;SDS011;58897;51.960;5.582;2023-04-25T05:01:24;6.47;;;2.60;;
12986;SDS011;58897;51.960;5.582;2023-04-25T05:03:52;5.13;;;2.87;;
12986;SDS011;58897;51.960;5.582;2023-04-25T05:06:20;6.63;;;3.00;;
12986;SDS011;58897;51.960;5.582;2023-04-25T05:08:46;6.67;;;2.87;;
12986;SDS011;58897;51.960;5.582;2023-04-25T05:11:13;6.97;;;2.97;;
12986;SDS011;58897;51.960;5.582;2023-04-25T05:13:39;9.37;;;2.63;;
12986;SDS011;58897;51.960;5.582;2023-04-25T05:16:06;8.07;;;2.97;;
12986;SDS011;58897;51.960;5.582;2023-04-25T05:18:32;4.87;;;2.67;;
12986;SDS011;58897;51.960;5.582;2023-04-25T05:20:59;5.70;;;2.67;;
12986;SDS011;58897;51.960;5.582;2023-04-25T05:23:25;8.70;;;2.50;;
12986;SDS011;58897;51.960;5.582;2023-04-25T05:25:54;6.80;;;2.10;;
12986;SDS011;58897;51.960;5.582;2023-04-25T05:28:20;6.60;;;2.20;;
12986;SDS011;58897;51.960;5.582;2023-04-25T05:30:47;5.77;;;2.57;;
12986;SDS011;58897;51.960;5.582;2023-04-25T05:33:14;3.93;;;2.27;;
12986;SDS011;58897;51.960;5.582;2023-04-25T05:35:40;4.90;;;2.03;;
12986;SDS011;58897;51.960;5.582;2023-04-25T05:38:07;6.90;;;2.20;;
12986;SDS011;58897;51.960;5.582;2023-04-25T05:40:34;6.33;;;1.83;;
12986;SDS011;58897;51.960;5.582;2023-04-25T05:43:00;4.07;;;2.20;;
12986;SDS011;58897;51.960;5.582;2023-04-25T05:45:27;3.87;;;1.90;;
12986;SDS011;58897;51.960;5.582;2023-04-25T05:47:54;5.70;;;1.87;;
12986;SDS011;58897;51.960;5.582;2023-04-25T05:50:20;5.47;;;1.97;;
12986;SDS011;58897;51.960;5.582;2023-04-25T05:52:47;10.83;;;2.43;;
12986;SDS011;58897;51.960;5.582;2023-04-25T05:55:14;5.67;;;1.97;;
12986;SDS011;58897;51.960;5.582;2023-04-25T05:57:41;4.33;;;1.63;;
12986;SDS011;58897;51.960;5.582;2023-04-25T06:00:08;4.00;;;1.97;;
12986;SDS011;58897;51.960;5.582;2023-04-25T06:02:36;5.30;;;2.13;;
12986;SDS011;58897;51.960;5.582;2023-04-25T06:05:02;4.53;;;1.67;;
12986;SDS011;58897;51.960;5.582;2023-04-25T06:07:29;5.03;;;2.03;;
12986;SDS011;58897;51.960;5.582;2023-04-25T06:09:57;5.50;;;2.20;;
12986;SDS011;58897;51.960;5.582;2023-04-25T06:12:23;5.10;;;1.73;;
12986;SDS011;58897;51.960;5.582;2023-04-25T06:14:50;4.30;;;2.10;;
12986;SDS011;58897;51.960;5.582;2023-04-25T06:17:16;4.47;;;1.70;;
12986;SDS011;58897;51.960;5.582;2023-04-25T06:19:43;5.40;;;2.07;;
12986;SDS011;58897;51.960;5.582;2023-04-25T06:22:10;4.53;;;1.97;;
12986;SDS011;58897;51.960;5.582;2023-04-25T06:24:36;4.83;;;2.30;;
12986;SDS011;58897;51.960;5.582;2023-04-25T06:27:03;7.33;;;1.80;;
12986;SDS011;58897;51.960;5.582;2023-04-25T06:29:29;5.73;;;2.03;;
12986;SDS011;58897;51.960;5.582;2023-04-25T06:31:56;6.40;;;2.10;;
12986;SDS011;58897;51.960;5.582;2023-04-25T06:34:23;6.40;;;2.33;;
12986;SDS011;58897;51.960;5.582;2023-04-25T06:36:50;4.53;;;1.90;;
12986;SDS011;58897;51.960;5.582;2023-04-25T06:39:16;4.97;;;2.03;;
12986;SDS011;58897;51.960;5.582;2023-04-25T06:41:43;6.67;;;1.63;;
12986;SDS011;58897;51.960;5.582;2023-04-25T06:44:09;5.47;;;2.20;;
12986;SDS011;58897;51.960;5.582;2023-04-25T06:46:36;5.63;;;1.73;;
12986;SDS011;58897;51.960;5.582;2023-04-25T06:49:03;3.60;;;1.70;;
12986;SDS011;58897;51.960;5.582;2023-04-25T06:51:30;7.83;;;1.87;;
12986;SDS011;58897;51.960;5.582;2023-04-25T06:53:57;4.80;;;1.73;;
12986;SDS011;58897;51.960;5.582;2023-04-25T06:56:23;9.03;;;1.70;;
12986;SDS011;58897;51.960;5.582;2023-04-25T06:58:50;8.50;;;2.50;;
12986;SDS011;58897;51.960;5.582;2023-04-25T07:01:17;7.10;;;1.90;;
12986;SDS011;58897;51.960;5.582;2023-04-25T07:03:44;2.70;;;1.43;;
12986;SDS011;58897;51.960;5.582;2023-04-25T07:06:11;4.43;;;1.57;;
12986;SDS011;58897;51.960;5.582;2023-04-25T07:08:38;5.60;;;1.53;;
12986;SDS011;58897;51.960;5.582;2023-04-25T07:11:04;3.03;;;1.47;;
12986;SDS011;58897;51.960;5.582;2023-04-25T07:13:31;4.50;;;1.23;;
12986;SDS011;58897;51.960;5.582;2023-04-25T07:15:57;6.50;;;1.93;;
12986;SDS011;58897;51.960;5.582;2023-04-25T07:18:24;5.17;;;2.30;;
12986;SDS011;58897;51.960;5.582;2023-04-25T07:20:50;5.77;;;2.47;;
12986;SDS011;58897;51.960;5.582;2023-04-25T07:23:17;3.50;;;1.60;;
12986;SDS011;58897;51.960;5.582;2023-04-25T07:25:43;6.67;;;2.80;;
12986;SDS011;58897;51.960;5.582;2023-04-25T07:28:10;5.97;;;1.83;;
12986;SDS011;58897;51.960;5.582;2023-04-25T07:30:36;6.03;;;1.60;;
12986;SDS011;58897;51.960;5.582;2023-04-25T07:33:03;6.23;;;2.00;;
12986;SDS011;58897;51.960;5.582;2023-04-25T07:35:30;4.63;;;2.03;;
12986;SDS011;58897;51.960;5.582;2023-04-25T07:37:56;7.87;;;1.80;;
12986;SDS011;58897;51.960;5.582;2023-04-25T07:40:23;5.10;;;1.67;;
12986;SDS011;58897;51.960;5.582;2023-04-25T07:42:49;4.23;;;2.03;;
12986;SDS011;58897;51.960;5.582;2023-04-25T07:45:16;5.53;;;1.97;;
12986;SDS011;58897;51.960;5.582;2023-04-25T07:47:43;3.70;;;1.40;;
12986;SDS011;58897;51.960;5.582;2023-04-25T07:50:09;5.70;;;1.57;;
12986;SDS011;58897;51.960;5.582;2023-04-25T07:52:37;3.37;;;1.60;;
12986;SDS011;58897;51.960;5.582;2023-04-25T07:55:03;3.63;;;1.10;;
12986;SDS011;58897;51.960;5.582;2023-04-25T07:57:30;3.03;;;1.17;;
12986;SDS011;58897;51.960;5.582;2023-04-25T07:59:57;5.30;;;1.40;;
12986;SDS011;58897;51.960;5.582;2023-04-25T08:02:24;1.87;;;1.47;;
12986;SDS011;58897;51.960;5.582;2023-04-25T08:04:52;5.33;;;1.83;;
12986;SDS011;58897;51.960;5.582;2023-04-25T08:07:18;4.23;;;1.47;;
12986;SDS011;58897;51.960;5.582;2023-04-25T08:09:45;3.50;;;1.20;;
12986;SDS011;58897;51.960;5.582;2023-04-25T08:12:12;2.87;;;1.10;;
12986;SDS011;58897;51.960;5.582;2023-04-25T08:14:39;2.60;;;1.40;;
12986;SDS011;58897;51.960;5.582;2023-04-25T08:17:05;2.57;;;1.20;;
12986;SDS011;58897;51.960;5.582;2023-04-25T08:19:32;2.50;;;1.10;;
12986;SDS011;58897;51.960;5.582;2023-04-25T08:21:58;3.57;;;1.53;;
12986;SDS011;58897;51.960;5.582;2023-04-25T08:24:25;3.07;;;1.27;;
12986;SDS011;58897;51.960;5.582;2023-04-25T08:26:52;3.57;;;1.50;;
12986;SDS011;58897;51.960;5.582;2023-04-25T08:29:18;7.03;;;1.70;;
12986;SDS011;58897;51.960;5.582;2023-04-25T08:31:45;4.83;;;1.23;;
12986;SDS011;58897;51.960;5.582;2023-04-25T08:34:12;3.80;;;1.20;;
12986;SDS011;58897;51.960;5.582;2023-04-25T08:36:38;3.83;;;1.27;;
12986;SDS011;58897;51.960;5.582;2023-04-25T08:39:05;4.40;;;1.53;;
12986;SDS011;58897;51.960;5.582;2023-04-25T08:41:33;2.53;;;1.33;;
12986;SDS011;58897;51.960;5.582;2023-04-25T08:43:59;3.67;;;1.33;;
12986;SDS011;58897;51.960;5.582;2023-04-25T08:46:29;5.53;;;0.90;;
12986;SDS011;58897;51.960;5.582;2023-04-25T08:49:00;2.57;;;1.27;;
12986;SDS011;58897;51.960;5.582;2023-04-25T08:51:27;3.67;;;1.20;;
12986;SDS011;58897;51.960;5.582;2023-04-25T08:54:06;3.93;;;0.97;;
12986;SDS011;58897;51.960;5.582;2023-04-25T08:56:56;2.80;;;1.30;;
12986;SDS011;58897;51.960;5.582;2023-04-25T08:59:28;2.03;;;1.20;;
12986;SDS011;58897;51.960;5.582;2023-04-25T09:01:54;1.73;;;1.10;;
12986;SDS011;58897;51.960;5.582;2023-04-25T09:04:21;5.33;;;1.50;;
12986;SDS011;58897;51.960;5.582;2023-04-25T09:06:47;1.90;;;0.90;;
12986;SDS011;58897;51.960;5.582;2023-04-25T09:09:14;3.37;;;1.10;;
12986;SDS011;58897;51.960;5.582;2023-04-25T09:11:41;2.63;;;0.97;;
12986;SDS011;58897;51.960;5.582;2023-04-25T09:14:11;3.73;;;1.63;;
12986;SDS011;58897;51.960;5.582;2023-04-25T09:16:56;3.00;;;1.90;;
12986;SDS011;58897;51.960;5.582;2023-04-25T09:19:24;4.03;;;1.73;;
12986;SDS011;58897;51.960;5.582;2023-04-25T09:22:06;4.47;;;1.57;;
12986;SDS011;58897;51.960;5.582;2023-04-25T09:24:38;3.40;;;1.50;;
12986;SDS011;58897;51.960;5.582;2023-04-25T09:27:20;3.83;;;1.10;;
12986;SDS011;58897;51.960;5.582;2023-04-25T09:29:56;2.70;;;1.17;;
12986;SDS011;58897;51.960;5.582;2023-04-25T09:32:25;1.50;;;0.97;;
12986;SDS011;58897;51.960;5.582;2023-04-25T09:34:52;3.47;;;1.00;;
12986;SDS011;58897;51.960;5.582;2023-04-25T09:37:21;2.50;;;1.40;;
12986;SDS011;58897;51.960;5.582;2023-04-25T09:39:49;2.37;;;1.17;;
12986;SDS011;58897;51.960;5.582;2023-04-25T09:42:23;3.27;;;1.57;;
12986;SDS011;58897;51.960;5.582;2023-04-25T09:44:55;2.53;;;1.00;;
12986;SDS011;58897;51.960;5.582;2023-04-25T09:47:23;1.00;;;0.70;;
12986;SDS011;58897;51.960;5.582;2023-04-25T09:49:51;2.57;;;1.00;;
12986;SDS011;58897;51.960;5.582;2023-04-25T09:52:20;1.80;;;1.13;;
12986;SDS011;58897;51.960;5.582;2023-04-25T09:54:51;3.20;;;1.27;;
12986;SDS011;58897;51.960;5.582;2023-04-25T09:57:19;3.67;;;1.30;;
12986;SDS011;58897;51.960;5.582;2023-04-25T09:59:47;2.70;;;1.40;;
12986;SDS011;58897;51.960;5.582;2023-04-25T10:02:17;2.10;;;1.00;;
12986;SDS011;58897;51.960;5.582;2023-04-25T10:04:50;2.67;;;1.13;;
12986;SDS011;58897;51.960;5.582;2023-04-25T10:07:22;1.80;;;1.17;;
12986;SDS011;58897;51.960;5.582;2023-04-25T10:09:59;3.13;;;1.27;;
12986;SDS011;58897;51.960;5.582;2023-04-25T10:12:29;2.60;;;1.10;;
12986;SDS011;58897;51.960;5.582;2023-04-25T10:15:00;4.03;;;1.40;;
12986;SDS011;58897;51.960;5.582;2023-04-25T10:17:27;5.23;;;1.53;;
12986;SDS011;58897;51.960;5.582;2023-04-25T10:19:54;3.27;;;1.40;;
12986;SDS011;58897;51.960;5.582;2023-04-25T10:22:34;4.83;;;1.83;;
12986;SDS011;58897;51.960;5.582;2023-04-25T10:25:03;3.20;;;1.03;;
12986;SDS011;58897;51.960;5.582;2023-04-25T10:27:31;4.63;;;2.17;;
12986;SDS011;58897;51.960;5.582;2023-04-25T10:30:10;6.53;;;1.47;;
12986;SDS011;58897;51.960;5.582;2023-04-25T10:32:42;2.83;;;1.30;;
12986;SDS011;58897;51.960;5.582;2023-04-25T10:35:10;4.23;;;1.30;;
12986;SDS011;58897;51.960;5.582;2023-04-25T10:37:37;3.40;;;1.40;;
12986;SDS011;58897;51.960;5.582;2023-04-25T10:40:09;3.80;;;1.30;;
12986;SDS011;58897;51.960;5.582;2023-04-25T10:42:36;4.90;;;1.50;;
12986;SDS011;58897;51.960;5.582;2023-04-25T10:45:05;3.40;;;1.00;;
12986;SDS011;58897;51.960;5.582;2023-04-25T10:47:35;3.53;;;1.30;;
12986;SDS011;58897;51.960;5.582;2023-04-25T10:50:07;3.80;;;1.17;;
12986;SDS011;58897;51.960;5.582;2023-04-25T10:52:34;2.93;;;1.00;;
12986;SDS011;58897;51.960;5.582;2023-04-25T10:55:02;1.80;;;1.03;;
12986;SDS011;58897;51.960;5.582;2023-04-25T10:57:30;2.20;;;1.27;;
12986;SDS011;58897;51.960;5.582;2023-04-25T11:02:45;4.17;;;1.20;;
12986;SDS011;58897;51.960;5.582;2023-04-25T11:05:22;4.73;;;1.27;;
12986;SDS011;58897;51.960;5.582;2023-04-25T11:07:55;2.37;;;1.27;;
12986;SDS011;58897;51.960;5.582;2023-04-25T11:10:30;3.23;;;1.10;;
12986;SDS011;58897;51.960;5.582;2023-04-25T11:12:58;1.80;;;1.03;;
12986;SDS011;58897;51.960;5.582;2023-04-25T11:15:25;3.00;;;1.40;;
12986;SDS011;58897;51.960;5.582;2023-04-25T11:17:52;3.93;;;1.07;;
12986;SDS011;58897;51.960;5.582;2023-04-25T11:20:19;3.07;;;1.30;;
12986;SDS011;58897;51.960;5.582;2023-04-25T11:22:47;2.43;;;0.73;;
12986;SDS011;58897;51.960;5.582;2023-04-25T11:25:16;2.87;;;1.43;;
12986;SDS011;58897;51.960;5.582;2023-04-25T11:27:52;4.63;;;1.20;;
12986;SDS011;58897;51.960;5.582;2023-04-25T11:30:21;2.97;;;1.43;;
12986;SDS011;58897;51.960;5.582;2023-04-25T11:32:48;5.37;;;1.30;;
12986;SDS011;58897;51.960;5.582;2023-04-25T11:35:15;3.60;;;2.30;;
12986;SDS011;58897;51.960;5.582;2023-04-25T11:37:42;3.20;;;1.50;;
12986;SDS011;58897;51.960;5.582;2023-04-25T11:40:09;3.80;;;1.60;;
12986;SDS011;58897;51.960;5.582;2023-04-25T11:42:38;3.37;;;1.37;;
12986;SDS011;58897;51.960;5.582;2023-04-25T11:45:05;4.27;;;1.33;;
12986;SDS011;58897;51.960;5.582;2023-04-25T11:47:33;2.37;;;0.80;;
12986;SDS011;58897;51.960;5.582;2023-04-25T11:50:00;2.73;;;0.70;;
12986;SDS011;58897;51.960;5.582;2023-04-25T11:55:17;5.57;;;1.30;;
12986;SDS011;58897;51.960;5.582;2023-04-25T11:57:47;2.70;;;1.10;;
12986;SDS011;58897;51.960;5.582;2023-04-25T12:00:17;3.53;;;1.37;;
12986;SDS011;58897;51.960;5.582;2023-04-25T12:02:47;2.57;;;1.27;;
12986;SDS011;58897;51.960;5.582;2023-04-25T12:05:17;2.23;;;1.20;;
12986;SDS011;58897;51.960;5.582;2023-04-25T12:07:47;1.40;;;1.00;;
12986;SDS011;58897;51.960;5.582;2023-04-25T12:10:14;1.90;;;1.30;;
12986;SDS011;58897;51.960;5.582;2023-04-25T12:12:43;3.00;;;1.50;;
12986;SDS011;58897;51.960;5.582;2023-04-25T12:17:42;2.70;;;0.97;;
12986;SDS011;58897;51.960;5.582;2023-04-25T12:20:12;4.30;;;1.07;;
12986;SDS011;58897;51.960;5.582;2023-04-25T12:22:41;2.67;;;1.00;;
12986;SDS011;58897;51.960;5.582;2023-04-25T12:25:11;2.00;;;0.97;;
12986;SDS011;58897;51.960;5.582;2023-04-25T12:27:39;2.37;;;1.20;;
12986;SDS011;58897;51.960;5.582;2023-04-25T12:30:08;4.10;;;1.70;;
12986;SDS011;58897;51.960;5.582;2023-04-25T12:32:35;3.67;;;1.00;;
12986;SDS011;58897;51.960;5.582;2023-04-25T12:35:02;3.17;;;1.00;;
12986;SDS011;58897;51.960;5.582;2023-04-25T12:37:28;3.40;;;1.17;;
12986;SDS011;58897;51.960;5.582;2023-04-25T12:39:55;2.30;;;1.20;;
12986;SDS011;58897;51.960;5.582;2023-04-25T12:42:21;1.70;;;1.07;;
12986;SDS011;58897;51.960;5.582;2023-04-25T12:44:48;3.40;;;1.50;;
12986;SDS011;58897;51.960;5.582;2023-04-25T12:47:14;3.97;;;1.37;;
12986;SDS011;58897;51.960;5.582;2023-04-25T12:49:41;3.00;;;1.20;;
12986;SDS011;58897;51.960;5.582;2023-04-25T12:52:07;2.07;;;1.33;;
12986;SDS011;58897;51.960;5.582;2023-04-25T12:54:33;4.10;;;1.30;;
12986;SDS011;58897;51.960;5.582;2023-04-25T12:57:00;5.57;;;1.13;;
12986;SDS011;58897;51.960;5.582;2023-04-25T12:59:28;3.27;;;1.27;;
12986;SDS011;58897;51.960;5.582;2023-04-25T13:01:55;2.07;;;0.93;;
12986;SDS011;58897;51.960;5.582;2023-04-25T13:04:22;2.97;;;1.10;;
12986;SDS011;58897;51.960;5.582;2023-04-25T13:06:48;2.27;;;1.00;;
12986;SDS011;58897;51.960;5.582;2023-04-25T13:09:15;2.93;;;1.30;;
12986;SDS011;58897;51.960;5.582;2023-04-25T13:11:41;3.43;;;0.87;;
12986;SDS011;58897;51.960;5.582;2023-04-25T13:14:08;3.07;;;1.37;;
12986;SDS011;58897;51.960;5.582;2023-04-25T13:16:34;2.57;;;1.00;;
12986;SDS011;58897;51.960;5.582;2023-04-25T13:19:01;2.97;;;1.07;;
12986;SDS011;58897;51.960;5.582;2023-04-25T13:21:29;1.17;;;1.00;;
12986;SDS011;58897;51.960;5.582;2023-04-25T13:23:57;2.47;;;0.80;;
12986;SDS011;58897;51.960;5.582;2023-04-25T13:26:23;1.57;;;0.87;;
12986;SDS011;58897;51.960;5.582;2023-04-25T13:28:50;2.00;;;0.93;;
12986;SDS011;58897;51.960;5.582;2023-04-25T13:31:16;0.97;;;0.90;;
12986;SDS011;58897;51.960;5.582;2023-04-25T13:33:43;2.20;;;1.20;;
12986;SDS011;58897;51.960;5.582;2023-04-25T13:36:09;3.27;;;0.80;;
12986;SDS011;58897;51.960;5.582;2023-04-25T13:38:37;3.57;;;0.80;;
12986;SDS011;58897;51.960;5.582;2023-04-25T13:41:04;1.43;;;0.90;;
12986;SDS011;58897;51.960;5.582;2023-04-25T13:43:33;2.30;;;0.93;;
12986;SDS011;58897;51.960;5.582;2023-04-25T13:46:00;3.93;;;0.87;;
12986;SDS011;58897;51.960;5.582;2023-04-25T13:48:26;1.67;;;0.93;;
12986;SDS011;58897;51.960;5.582;2023-04-25T13:50:53;2.77;;;1.40;;
12986;SDS011;58897;51.960;5.582;2023-04-25T13:53:19;2.73;;;0.77;;
12986;SDS011;58897;51.960;5.582;2023-04-25T13:55:47;2.53;;;1.10;;
12986;SDS011;58897;51.960;5.582;2023-04-25T13:58:13;3.50;;;1.20;;
12986;SDS011;58897;51.960;5.582;2023-04-25T14:00:40;2.13;;;1.10;;
12986;SDS011;58897;51.960;5.582;2023-04-25T14:03:09;2.70;;;1.03;;
12986;SDS011;58897;51.960;5.582;2023-04-25T14:05:36;1.97;;;1.20;;
12986;SDS011;58897;51.960;5.582;2023-04-25T14:08:07;3.70;;;1.23;;
12986;SDS011;58897;51.960;5.582;2023-04-25T14:10:34;1.40;;;0.73;;
12986;SDS011;58897;51.960;5.582;2023-04-25T14:13:02;3.97;;;1.13;;
12986;SDS011;58897;51.960;5.582;2023-04-25T14:15:32;2.70;;;1.17;;
12986;SDS011;58897;51.960;5.582;2023-04-25T14:18:00;2.90;;;1.10;;
12986;SDS011;58897;51.960;5.582;2023-04-25T14:20:27;2.10;;;1.10;;
12986;SDS011;58897;51.960;5.582;2023-04-25T14:22:54;2.63;;;1.00;;
12986;SDS011;58897;51.960;5.582;2023-04-25T14:25:23;2.03;;;1.10;;
12986;SDS011;58897;51.960;5.582;2023-04-25T14:27:50;1.80;;;0.90;;
12986;SDS011;58897;51.960;5.582;2023-04-25T14:30:20;4.00;;;1.10;;
12986;SDS011;58897;51.960;5.582;2023-04-25T14:32:50;3.03;;;1.20;;
12986;SDS011;58897;51.960;5.582;2023-04-25T14:35:17;3.20;;;1.30;;
12986;SDS011;58897;51.960;5.582;2023-04-25T14:37:44;1.83;;;0.93;;
12986;SDS011;58897;51.960;5.582;2023-04-25T14:40:11;4.03;;;1.13;;
12986;SDS011;58897;51.960;5.582;2023-04-25T14:42:39;3.63;;;1.03;;
12986;SDS011;58897;51.960;5.582;2023-04-25T14:45:06;6.23;;;2.83;;
12986;SDS011;58897;51.960;5.582;2023-04-25T14:47:35;4.40;;;1.60;;
12986;SDS011;58897;51.960;5.582;2023-04-25T14:50:02;2.83;;;1.43;;
12986;SDS011;58897;51.960;5.582;2023-04-25T14:52:30;4.13;;;1.90;;
12986;SDS011;58897;51.960;5.582;2023-04-25T14:54:57;4.03;;;1.53;;
12986;SDS011;58897;51.960;5.582;2023-04-25T14:57:26;4.10;;;1.40;;
12986;SDS011;58897;51.960;5.582;2023-04-25T14:59:52;2.93;;;1.30;;